Time;durP1;ratioP1;P1;durP2;ratioP2;P2;SDS_P1;SDS_P2;PMS_P1;PMS_P2;Temp;Humidity;BMP_temperature;BMP_pressure;BME280_temperature;BME280_humidity;BME280_pressure;Samples;Min_cycle;Max_cycle;Signal;HPM_P1;HPM_P2
2022/03/28 00:01:29;;;;;;;;;;;;;;;25.98;31.88;95041.69;4937801;28;9489;-59
2022/03/28 00:03:57;;;;;;;;;;;;;;;25.99;31.79;95042.44;4938899;28;8913;-59
2022/03/28 00:06:29;;;;;;;;;;;;;;;25.99;31.68;95042.44;4941198;28;8821;-59
2022/03/28 00:09:10;;;;;;;;;;;;;;;25.99;32.00;95043.16;4957672;28;9282;-59
2022/03/28 00:11:40;;;;;;;;;;;;;;;25.99;31.46;95032.13;4935954;28;7249;-59
2022/03/28 00:14:22;;;;;;;;;;;;;;;25.97;32.04;95033.88;4951738;28;7446;-59
2022/03/28 00:17:08;;;;;;;;;;;;;;;25.97;31.77;95040.16;4932796;28;7039;-59
2022/03/28 00:19:37;;;;;;;;;;;;;;;25.96;31.85;95038.66;4940381;28;9065;-59
2022/03/28 00:22:32;;;;;;;;;;;;;;;25.96;31.77;95044.19;4937206;28;8537;-59
2022/03/28 00:24:58;;;;;;;;;;;;;;;25.94;32.25;95038.41;4957355;28;8410;-59
2022/03/28 00:27:36;;;;;;;;;;;;;;;25.96;32.04;95037.91;4936271;29;8797;-59
2022/03/28 00:30:10;;;;;;;;;;;;;;;25.95;31.57;95039.16;4944583;28;9730;-59
2022/03/28 00:32:36;;;;;;;;;;;;;;;25.95;31.86;95026.13;4934795;28;9119;-59
2022/03/28 00:35:09;;;;;;;;;;;;;;;25.94;31.53;95029.38;4937610;28;7441;-59
2022/03/28 00:37:37;;;;;;;;;;;;;;;25.92;31.53;95027.13;4930678;28;9145;-59
2022/03/28 00:40:05;;;;;;;;;;;;;;;25.90;31.89;95024.09;4947619;28;8813;-59
2022/03/28 00:42:31;;;;;;;;;;;;;;;25.91;31.98;95025.63;4952349;28;8949;-59
2022/03/28 00:44:57;;;;;;;;;;;;;;;25.90;32.20;95021.34;4945050;28;9462;-58
2022/03/28 00:47:28;;;;;;;;;;;;;;;25.86;31.71;95018.06;4936771;28;8617;-59
2022/03/28 00:49:56;;;;;;;;;;;;;;;25.92;32.34;95023.63;4933364;28;7018;-59
2022/03/28 00:52:24;;;;;;;;;;;;;;;25.91;31.68;95014.59;4933474;28;6997;-59
2022/03/28 00:54:57;;;;;;;;;;;;;;;25.90;31.47;95015.09;4940143;28;9325;-59
2022/03/28 00:57:27;;;;;;;;;;;;;;;25.92;31.58;95018.09;4953983;28;8829;-59
2022/03/28 00:59:55;;;;;;;;;;;;;;;25.90;31.23;95013.06;4924930;29;9295;-59
2022/03/28 01:02:33;;;;;;;;;;;;;;;25.90;31.74;95017.84;4949591;28;8771;-59
2022/03/28 01:05:05;;;;;;;;;;;;;;;25.89;31.55;95019.84;4924649;28;7045;-59
2022/03/28 01:07:32;;;;;;;;;;;;;;;25.90;31.65;95017.84;4941102;28;7059;-59
2022/03/28 01:09:59;;;;;;;;;;;;;;;25.91;32.17;95013.84;4950801;28;7068;-59
2022/03/28 01:12:27;;;;;;;;;;;;;;;25.88;31.76;95021.09;4934560;28;9093;-59
2022/03/28 01:14:54;;;;;;;;;;;;;;;25.90;31.39;95007.56;4934086;28;9104;-59
2022/03/28 01:20:06;;;;;;;;;;;;;;;25.88;31.67;95007.31;4951790;28;9048;-59
2022/03/28 01:22:32;;;;;;;;;;;;;;;25.87;31.63;95014.09;4943228;28;9087;-59
2022/03/28 01:25:08;;;;;;;;;;;;;;;25.88;32.13;95009.34;4935265;29;9410;-59
2022/03/28 01:27:41;;;;;;;;;;;;;;;25.87;31.69;94996.78;4952541;28;7199;-59
2022/03/28 01:30:09;;;;;;;;;;;;;;;25.84;31.63;94997.78;4939201;28;9081;-59
2022/03/28 01:32:42;;;;;;;;;;;;;;;25.87;32.14;94999.56;4938224;28;7083;-59
2022/03/28 01:35:09;;;;;;;;;;;;;;;25.86;31.91;94998.78;4937184;28;7326;-59
2022/03/28 01:37:38;;;;;;;;;;;;;;;25.84;31.38;94993.03;4940175;28;6994;-59
2022/03/28 01:40:08;;;;;;;;;;;;;;;25.84;31.81;94992.25;4928476;29;9131;-59
2022/03/28 01:42:48;;;;;;;;;;;;;;;25.82;31.63;94990.03;4933666;28;9581;-59
2022/03/28 01:45:18;;;;;;;;;;;;;;;25.83;31.73;94997.03;4938232;28;7324;-59
2022/03/28 01:47:47;;;;;;;;;;;;;;;25.82;32.36;94994.75;4954059;28;7397;-59
2022/03/28 01:50:13;;;;;;;;;;;;;;;25.81;31.65;94977.50;4936881;28;9735;-59
2022/03/28 01:52:43;;;;;;;;;;;;;;;25.82;31.64;94984.50;4948153;28;7058;-59
2022/03/28 01:55:12;;;;;;;;;;;;;;;25.82;31.46;94990.03;4938500;28;7171;-59
2022/03/28 01:57:44;;;;;;;;;;;;;;;25.81;31.39;94985.78;4943707;28;9204;-59
2022/03/28 02:00:18;;;;;;;;;;;;;;;25.80;31.95;94989.75;4937632;28;8747;-59
2022/03/28 02:03:00;;;;;;;;;;;;;;;25.77;31.87;94985.25;4943904;28;9400;-59
2022/03/28 02:05:38;;;;;;;;;;;;;;;25.78;31.57;94986.75;4933800;28;7452;-59
2022/03/28 02:08:04;;;;;;;;;;;;;;;25.78;31.96;94983.25;4937115;28;7167;-59
2022/03/28 02:10:30;;;;;;;;;;;;;;;25.79;32.09;94982.00;4933057;28;8966;-59
2022/03/28 02:13:02;;;;;;;;;;;;;;;25.77;31.50;94988.03;4928368;29;7020;-59
2022/03/28 02:15:28;;;;;;;;;;;;;;;25.76;31.85;94989.25;4950401;28;9123;-59
2022/03/28 02:18:00;;;;;;;;;;;;;;;25.75;31.83;94989.75;4935069;28;9100;-59
2022/03/28 02:20:27;;;;;;;;;;;;;;;25.73;31.49;94981.25;4933177;28;9410;-59
2022/03/28 02:22:55;;;;;;;;;;;;;;;25.75;31.61;94984.25;4950749;28;9117;-59
2022/03/28 02:25:23;;;;;;;;;;;;;;;25.74;31.55;94977.22;4932998;28;7488;-59
2022/03/28 02:27:50;;;;;;;;;;;;;;;25.73;31.62;94981.97;4947151;28;7261;-59
2022/03/28 02:30:20;;;;;;;;;;;;;;;25.71;31.68;94973.47;4937171;28;6860;-59
2022/03/28 02:32:48;;;;;;;;;;;;;;;25.71;32.33;94976.22;4937284;28;7286;-59
2022/03/28 02:35:14;;;;;;;;;;;;;;;25.72;32.40;94985.25;4941988;28;7059;-59
2022/03/28 02:37:43;;;;;;;;;;;;;;;25.72;32.10;94985.25;4930837;28;7408;-59
2022/03/28 02:40:10;;;;;;;;;;;;;;;25.70;32.10;94973.97;4919930;28;9104;-59
2022/03/28 02:42:36;;;;;;;;;;;;;;;25.68;31.87;94979.22;4916931;28;7023;-59
2022/03/28 02:45:02;;;;;;;;;;;;;;;25.68;32.09;94971.72;4941542;28;7455;-59
2022/03/28 02:47:31;;;;;;;;;;;;;;;25.69;32.20;94980.72;4946530;28;9517;-59
2022/03/28 02:49:57;;;;;;;;;;;;;;;25.68;31.75;94979.97;4944881;28;8250;-59
2022/03/28 02:52:23;;;;;;;;;;;;;;;25.67;31.39;94970.19;4933316;28;7054;-59
2022/03/28 02:54:52;;;;;;;;;;;;;;;25.68;32.01;94977.22;4950141;28;6860;-59
2022/03/28 02:57:18;;;;;;;;;;;;;;;25.66;31.41;94971.47;4931181;28;9148;-59
2022/03/28 02:59:46;;;;;;;;;;;;;;;25.65;31.58;94969.94;4933598;28;7269;-59
2022/03/28 03:02:12;;;;;;;;;;;;;;;25.65;31.70;94969.94;4927903;28;8659;-59
2022/03/28 03:04:38;;;;;;;;;;;;;;;25.65;31.72;94967.19;4940865;28;9166;-59
2022/03/28 03:07:08;;;;;;;;;;;;;;;25.61;31.59;94963.94;4935912;28;9175;-60
2022/03/28 03:09:35;;;;;;;;;;;;;;;25.64;31.24;94979.47;4944867;28;7034;-59
2022/03/28 03:12:02;;;;;;;;;;;;;;;25.63;31.58;94972.44;4925445;29;9316;-59
2022/03/28 03:14:28;;;;;;;;;;;;;;;25.64;31.39;94973.19;4940143;28;9004;-59
2022/03/28 03:16:54;;;;;;;;;;;;;;;25.62;31.28;94973.69;4949170;28;9408;-59
2022/03/28 03:19:21;;;;;;;;;;;;;;;25.61;31.03;94969.44;4940840;29;9396;-59
2022/03/28 03:21:49;;;;;;;;;;;;;;;25.62;31.43;94959.91;4954842;28;8177;-59
2022/03/28 03:24:17;;;;;;;;;;;;;;;25.61;31.05;94963.16;4948737;28;7130;-59
2022/03/28 03:26:44;;;;;;;;;;;;;;;25.60;31.08;94962.41;4937982;28;9073;-59
2022/03/28 03:29:14;;;;;;;;;;;;;;;25.60;30.80;94956.16;4934729;29;8846;-59
2022/03/28 03:31:43;;;;;;;;;;;;;;;25.60;30.82;94959.66;4953025;28;9795;-59
2022/03/28 03:34:11;;;;;;;;;;;;;;;25.60;30.63;94956.16;4954774;28;7054;-59
2022/03/28 03:36:39;;;;;;;;;;;;;;;25.59;31.04;94957.41;4947742;28;7230;-59
2022/03/28 03:39:07;;;;;;;;;;;;;;;25.58;30.41;94948.38;4952975;28;9583;-59
2022/03/28 03:41:42;;;;;;;;;;;;;;;25.58;30.49;94959.41;4939354;28;7157;-59
2022/03/28 03:44:09;;;;;;;;;;;;;;;25.55;30.96;94952.16;4935327;29;7540;-59
2022/03/28 03:46:38;;;;;;;;;;;;;;;25.57;30.22;94955.16;4939813;28;7062;-59
2022/03/28 03:49:04;;;;;;;;;;;;;;;25.58;30.49;94962.16;4887753;28;7448;-59
2022/03/28 03:51:30;;;;;;;;;;;;;;;25.57;30.74;94946.88;4954015;28;6988;-59
2022/03/28 03:53:58;;;;;;;;;;;;;;;25.56;30.61;94958.38;4952354;28;9301;-59
2022/03/28 03:56:28;;;;;;;;;;;;;;;25.56;30.84;94956.38;4955641;28;9560;-59
2022/03/28 03:58:58;;;;;;;;;;;;;;;25.56;30.42;94950.88;4937411;28;8804;-59
2022/03/28 04:01:26;;;;;;;;;;;;;;;25.55;30.49;94952.16;4925313;28;7267;-59
2022/03/28 04:03:53;;;;;;;;;;;;;;;25.57;30.42;94954.41;4937163;28;9093;-59
2022/03/28 04:06:25;;;;;;;;;;;;;;;25.55;30.66;94960.41;4945984;28;8165;-59
2022/03/28 04:08:51;;;;;;;;;;;;;;;25.57;30.75;94957.91;4930209;28;9400;-59
2022/03/28 04:11:19;;;;;;;;;;;;;;;25.56;30.60;94956.38;4943306;28;9274;-59
2022/03/28 04:13:54;;;;;;;;;;;;;;;25.54;30.69;94958.91;4956339;28;9089;-59
2022/03/28 04:16:28;;;;;;;;;;;;;;;25.55;30.54;94952.16;4938807;28;8079;-59
2022/03/28 04:18:57;;;;;;;;;;;;;;;25.55;30.22;94949.41;4956714;28;7254;-59
2022/03/28 04:21:29;;;;;;;;;;;;;;;25.55;30.82;94954.91;4944433;28;7130;-59
2022/03/28 04:23:55;;;;;;;;;;;;;;;25.54;29.86;94953.38;4937590;28;9240;-58
2022/03/28 04:26:32;;;;;;;;;;;;;;;25.50;30.42;94947.38;4950828;28;9349;-58
2022/03/28 04:29:00;;;;;;;;;;;;;;;25.52;29.95;94955.13;4936738;28;7371;-58
2022/03/28 04:31:33;;;;;;;;;;;;;;;25.51;29.82;94953.63;4939196;28;8177;-58
2022/03/28 04:34:11;;;;;;;;;;;;;;;25.50;30.23;94952.13;4938854;28;8969;-59
2022/03/28 04:36:38;;;;;;;;;;;;;;;25.46;33.68;94940.59;4948201;28;7342;-59
2022/03/28 04:39:15;;;;;;;;;;;;;;;25.48;30.33;94949.88;4925946;29;9301;-59
2022/03/28 04:41:44;;;;;;;;;;;;;;;25.48;30.17;94949.88;4935811;28;9097;-59
2022/03/28 04:44:10;;;;;;;;;;;;;;;25.48;29.94;94947.13;4939427;28;7260;-59
2022/03/28 04:46:36;;;;;;;;;;;;;;;25.47;30.15;94939.34;4952402;28;7548;-58
2022/03/28 04:49:02;;;;;;;;;;;;;;;25.47;30.25;94948.34;4938781;28;7230;-59
2022/03/28 04:51:28;;;;;;;;;;;;;;;25.47;29.93;94940.09;4939089;28;7004;-59
2022/03/28 04:54:01;;;;;;;;;;;;;;;25.47;30.24;94942.84;4939280;28;7309;-59
2022/03/28 04:56:27;;;;;;;;;;;;;;;25.45;30.88;94952.88;4932949;28;6996;-59
2022/03/28 04:58:53;;;;;;;;;;;;;;;25.45;30.11;94950.13;4948273;28;8931;-59
2022/03/28 05:01:27;;;;;;;;;;;;;;;25.42;29.94;94949.84;4956090;28;7309;-59
2022/03/28 05:04:08;;;;;;;;;;;;;;;25.40;29.97;94949.56;4940963;28;7241;-59
2022/03/28 05:06:40;;;;;;;;;;;;;;;25.41;30.27;94955.81;4946048;28;7374;-58
2022/03/28 05:09:18;;;;;;;;;;;;;;;25.37;29.83;94953.31;4936789;28;7479;-59
2022/03/28 05:11:52;;;;;;;;;;;;;;;25.39;29.73;94950.06;4940560;28;9548;-59
2022/03/28 05:14:21;;;;;;;;;;;;;;;25.39;30.29;94961.06;4938313;28;7254;-58
2022/03/28 05:16:48;;;;;;;;;;;;;;;25.40;30.27;94957.09;4950923;28;7423;-59
2022/03/28 05:19:27;;;;;;;;;;;;;;;25.39;30.13;94969.34;4954506;28;7482;-59
2022/03/28 05:21:53;;;;;;;;;;;;;;;25.39;29.67;94961.06;4930634;28;8747;-58
2022/03/28 05:24:21;;;;;;;;;;;;;;;25.37;30.19;94961.56;4934187;28;7497;-59
2022/03/28 05:26:52;;;;;;;;;;;;;;;25.38;30.32;94968.56;4935139;28;7191;-59
2022/03/28 05:29:34;;;;;;;;;;;;;;;25.39;29.92;94961.06;4938165;28;7231;-59
2022/03/28 05:32:01;;;;;;;;;;;;;;;25.38;29.66;94965.09;4937747;28;9123;-59
2022/03/28 05:34:30;;;;;;;;;;;;;;;25.37;30.23;94960.81;4939497;28;9095;-59
2022/03/28 05:37:01;;;;;;;;;;;;;;;25.38;30.05;94967.84;4933159;29;7291;-60
2022/03/28 05:39:37;;;;;;;;;;;;;;;25.35;30.05;94966.06;4934802;28;9468;-60
2022/03/28 05:42:07;;;;;;;;;;;;;;;25.35;29.56;94972.34;4940537;28;8012;-60
2022/03/28 05:44:37;;;;;;;;;;;;;;;25.35;30.03;94969.59;4946072;28;9644;-60
2022/03/28 05:47:04;;;;;;;;;;;;;;;25.36;30.26;94973.06;4930739;28;7249;-60
2022/03/28 05:49:32;;;;;;;;;;;;;;;25.33;29.84;94972.09;4949840;28;7256;-60
2022/03/28 05:51:58;;;;;;;;;;;;;;;25.31;29.27;94974.56;4931484;28;7837;-60
2022/03/28 05:54:36;;;;;;;;;;;;;;;25.29;29.20;94973.56;4938961;28;9407;-60
2022/03/28 05:57:05;;;;;;;;;;;;;;;25.28;28.84;94974.78;4943470;28;7066;-60
2022/03/28 05:59:35;;;;;;;;;;;;;;;25.28;29.11;94972.03;4948882;28;9580;-60
2022/03/28 06:02:03;;;;;;;;;;;;;;;25.29;28.87;94981.81;4934686;28;8834;-60
2022/03/28 06:04:34;;;;;;;;;;;;;;;25.29;29.52;94971.53;4943325;28;8840;-60
2022/03/28 06:07:00;;;;;;;;;;;;;;;25.29;29.77;94968.06;4934147;28;9190;-60
2022/03/28 06:09:30;;;;;;;;;;;;;;;25.28;29.30;94972.03;4937993;28;8735;-60
2022/03/28 06:12:01;;;;;;;;;;;;;;;25.28;29.67;94975.56;4935548;28;7153;-60
2022/03/28 06:14:27;;;;;;;;;;;;;;;25.29;29.53;94970.81;4936671;28;7851;-60
2022/03/28 06:16:53;;;;;;;;;;;;;;;25.26;29.78;94969.03;4929685;28;9213;-60
2022/03/28 06:19:22;;;;;;;;;;;;;;;25.25;30.42;94970.28;4944094;28;9040;-60
2022/03/28 06:21:48;;;;;;;;;;;;;;;25.27;29.59;94965.03;4954187;28;7123;-60
2022/03/28 06:24:17;;;;;;;;;;;;;;;25.26;29.96;94969.03;4934710;28;7204;-60
2022/03/28 06:26:53;;;;;;;;;;;;;;;25.25;29.96;94964.78;4928095;29;8786;-61
2022/03/28 06:29:35;;;;;;;;;;;;;;;25.27;29.88;94971.28;4937587;28;7211;-60
2022/03/28 06:32:16;;;;;;;;;;;;;;;25.28;30.46;94966.53;4940752;28;7044;-60
2022/03/28 06:34:48;;;;;;;;;;;;;;;25.26;30.34;94971.78;4937617;28;8954;-60
2022/03/28 06:37:24;;;;;;;;;;;;;;;25.26;29.86;94969.03;4942567;28;7553;-60
2022/03/28 06:39:50;;;;;;;;;;;;;;;25.27;30.37;94973.31;4941452;28;7237;-60
2022/03/28 06:42:16;;;;;;;;;;;;;;;25.28;30.08;94975.56;4934582;29;7294;-60
2022/03/28 06:44:47;;;;;;;;;;;;;;;25.27;30.42;94979.53;4934999;28;10069;-60
2022/03/28 06:47:13;;;;;;;;;;;;;;;25.26;30.11;94969.78;4949778;28;9860;-60
2022/03/28 06:49:39;;;;;;;;;;;;;;;25.27;30.67;94976.06;4938335;28;7471;-60
2022/03/28 06:52:08;;;;;;;;;;;;;;;25.25;30.46;94970.28;4922257;29;8995;-60
2022/03/28 06:54:50;;;;;;;;;;;;;;;25.30;30.28;94981.31;4950115;28;7263;-60
2022/03/28 06:57:16;;;;;;;;;;;;;;;25.26;30.66;94974.53;4934983;28;9383;-60
2022/03/28 06:59:44;;;;;;;;;;;;;;;25.28;30.50;94980.31;4931225;29;8711;-61
2022/03/28 07:02:17;;;;;;;;;;;;;;;25.27;31.13;94973.31;4939081;28;9428;-61
2022/03/28 07:04:52;;;;;;;;;;;;;;;25.31;30.78;94974.56;4952258;28;9277;-61
2022/03/28 07:07:18;;;;;;;;;;;;;;;25.28;31.02;94972.03;4933590;28;7268;-58
2022/03/28 07:10:10;;;;;;;;;;;;;;;25.31;30.45;94968.31;4940651;29;9244;-58
2022/03/28 07:13:11;;;;;;;;;;;;;;;25.30;30.65;94972.28;4943924;29;8745;-58
2022/03/28 07:15:46;;;;;;;;;;;;;;;25.29;31.09;94966.03;4891501;29;8540;-60
2022/03/28 07:18:13;;;;;;;;;;;;;;;25.28;30.94;94969.28;4907043;29;9425;-60
2022/03/28 07:20:50;;;;;;;;;;;;;;;25.27;30.98;94962.28;4900484;29;7150;-60
2022/03/28 07:23:25;;;;;;;;;;;;;;;25.27;31.06;94965.78;4896568;29;7249;-60
2022/03/28 07:26:02;;;;;;;;;;;;;;;25.28;31.49;94969.28;4890466;29;9211;-60
2022/03/28 07:28:39;;;;;;;;;;;;;;;25.30;31.07;94961.28;4895229;29;8945;-60
2022/03/28 07:31:39;;;;;;;;;;;;;;;25.29;31.28;94960.53;4913172;29;7245;-60
2022/03/28 07:34:35;;;;;;;;;;;;;;;25.26;31.18;94960.78;4856441;29;8007;-60
2022/03/28 07:37:06;;;;;;;;;;;;;;;25.29;31.59;94966.03;4843086;29;8738;-60
2022/03/28 07:39:43;;;;;;;;;;;;;;;25.27;31.06;94960.28;4856705;29;9552;-60
2022/03/28 07:42:10;;;;;;;;;;;;;;;25.26;31.35;94958.03;4858321;29;9066;-60
2022/03/28 07:44:45;;;;;;;;;;;;;;;25.29;30.85;94959.78;4856726;29;6941;-61
2022/03/28 07:47:11;;;;;;;;;;;;;;;25.30;31.91;94959.28;4861101;29;8678;-60
2022/03/28 07:49:40;;;;;;;;;;;;;;;25.30;31.51;94958.53;4862552;29;7254;-61
2022/03/28 07:52:08;;;;;;;;;;;;;;;25.30;31.56;94958.53;4888643;29;9119;-60
2022/03/28 07:54:48;;;;;;;;;;;;;;;25.28;31.80;94950.78;4895393;29;9072;-60
2022/03/28 07:57:30;;;;;;;;;;;;;;;25.31;32.03;94951.78;4911445;29;7284;-60
2022/03/28 08:00:21;;;;;;;;;;;;;;;25.31;31.31;94957.28;4892991;29;8550;-61
2022/03/28 08:02:47;;;;;;;;;;;;;;;25.27;31.89;94945.78;4879499;29;7638;-61
2022/03/28 08:05:14;;;;;;;;;;;;;;;25.28;31.53;94942.50;4903177;29;7251;-60
2022/03/28 08:07:53;;;;;;;;;;;;;;;25.32;31.40;94947.78;4905910;29;9055;-60
2022/03/28 08:10:21;;;;;;;;;;;;;;;25.31;31.65;94940.78;4929603;28;9080;-61
2022/03/28 08:12:58;;;;;;;;;;;;;;;25.33;31.27;94943.78;4960784;28;7197;-60
2022/03/28 08:15:25;;;;;;;;;;;;;;;25.33;31.62;94941.03;4942391;28;6998;-61
2022/03/28 08:18:07;;;;;;;;;;;;;;;25.34;31.61;94942.53;4956128;28;9406;-61
2022/03/28 08:20:35;;;;;;;;;;;;;;;25.33;31.16;94939.03;4932888;28;7413;-61
2022/03/28 08:23:02;;;;;;;;;;;;;;;25.33;31.59;94947.28;4935674;28;9134;-60
2022/03/28 08:25:29;;;;;;;;;;;;;;;25.33;31.38;94941.78;4949960;28;9089;-60
2022/03/28 08:28:00;;;;;;;;;;;;;;;25.33;32.01;94936.28;4936240;28;9047;-60
2022/03/28 08:30:27;;;;;;;;;;;;;;;25.33;31.30;94932.78;4940165;28;8734;-60
2022/03/28 08:32:55;;;;;;;;;;;;;;;25.35;31.47;94935.78;4935940;28;9058;-60
2022/03/28 08:35:31;;;;;;;;;;;;;;;25.34;31.89;94937.78;4947084;28;7231;-60
2022/03/28 08:38:06;;;;;;;;;;;;;;;25.35;31.54;94933.03;4942549;28;7261;-60
2022/03/28 08:40:42;;;;;;;;;;;;;;;25.34;31.37;94934.25;4939579;28;7288;-60
2022/03/28 08:43:18;;;;;;;;;;;;;;;25.33;31.69;94941.03;4933605;28;7072;-60
2022/03/28 08:45:48;;;;;;;;;;;;;;;25.35;31.99;94942.03;4934445;28;8460;-60
2022/03/28 08:48:15;;;;;;;;;;;;;;;25.36;31.84;94938.03;4944918;28;9436;-60
2022/03/28 08:50:49;;;;;;;;;;;;;;;25.38;31.70;94934.81;4935216;28;7494;-60
2022/03/28 08:53:19;;;;;;;;;;;;;;;25.39;31.93;94930.78;4939221;28;9122;-60
2022/03/28 08:55:46;;;;;;;;;;;;;;;25.38;31.38;94923.78;4936086;28;8034;-61
2022/03/28 08:58:32;;;;;;;;;;;;;;;25.39;31.78;94925.28;4935258;28;7257;-60
2022/03/28 09:01:11;;;;;;;;;;;;;;;25.39;31.91;94922.53;4927240;28;7154;-61
2022/03/28 09:04:17;;;;;;;;;;;;;;;25.39;32.00;94906.00;4942624;28;7245;-60
2022/03/28 09:06:47;;;;;;;;;;;;;;;25.40;31.65;94904.75;4939022;28;9060;-61
2022/03/28 09:09:24;;;;;;;;;;;;;;;25.40;31.85;94902.72;4932070;28;7409;-61
2022/03/28 09:12:15;;;;;;;;;;;;;;;25.40;31.75;94902.72;4940867;28;7644;-61
2022/03/28 09:14:56;;;;;;;;;;;;;;;25.41;31.85;94898.00;4925708;29;7129;-60
2022/03/28 09:17:22;;;;;;;;;;;;;;;25.40;32.16;94897.22;4925540;29;7559;-59
2022/03/28 09:20:14;;;;;;;;;;;;;;;25.39;32.34;94889.47;4924996;29;9030;-60
2022/03/28 09:22:43;;;;;;;;;;;;;;;25.40;32.16;94891.00;4923048;29;9144;-59
2022/03/28 09:25:53;;;;;;;;;;;;;;;25.40;32.08;94891.00;4915764;29;9169;-59
2022/03/28 09:28:53;;;;;;;;;;;;;;;25.42;31.69;94886.50;4876908;29;9040;-60
2022/03/28 09:31:47;;;;;;;;;;;;;;;25.43;31.51;94890.75;4832032;29;9320;-59
2022/03/28 09:34:26;;;;;;;;;;;;;;;25.41;31.47;94879.47;4841191;29;7224;-60
2022/03/28 09:37:11;;;;;;;;;;;;;;;25.43;31.46;94882.50;4825205;29;9202;-60
2022/03/28 09:39:46;;;;;;;;;;;;;;;25.42;31.48;94886.50;4824890;29;9450;-60
2022/03/28 09:42:12;;;;;;;;;;;;;;;25.44;31.63;94888.78;4842616;29;9092;-60
2022/03/28 09:45:03;;;;;;;;;;;;;;;25.45;31.24;94882.00;4825364;29;7466;-60
2022/03/28 09:47:29;;;;;;;;;;;;;;;25.45;31.28;94873.72;4835335;29;9142;-60
2022/03/28 09:49:57;;;;;;;;;;;;;;;25.46;31.48;94880.75;4840052;29;7308;-60
2022/03/28 09:52:25;;;;;;;;;;;;;;;25.46;31.78;94869.75;4840075;29;9276;-60
2022/03/28 09:54:59;;;;;;;;;;;;;;;25.48;31.22;94870.00;4824603;29;9150;-60
2022/03/28 09:57:33;;;;;;;;;;;;;;;25.49;32.09;94868.00;4823764;29;8966;-60
2022/03/28 10:00:17;;;;;;;;;;;;;;;25.49;31.73;94857.72;4839192;29;7210;-61
2022/03/28 10:02:44;;;;;;;;;;;;;;;25.50;31.53;94859.22;4838804;29;7259;-61
2022/03/28 10:05:15;;;;;;;;;;;;;;;25.49;32.04;94852.22;4853124;29;8042;-61
2022/03/28 10:07:50;;;;;;;;;;;;;;;25.51;32.17;94854.47;4918803;28;7277;-60
2022/03/28 10:10:34;;;;;;;;;;;;;;;25.51;32.02;94848.97;4954056;28;9102;-61
2022/03/28 10:13:06;;;;;;;;;;;;;;;25.47;31.62;94849.19;4936064;28;7283;-61
2022/03/28 10:15:43;;;;;;;;;;;;;;;25.52;31.73;94845.72;4942412;28;7320;-59
2022/03/28 10:18:14;;;;;;;;;;;;;;;25.51;32.08;94843.47;4936049;28;9609;-59
2022/03/28 10:20:45;;;;;;;;;;;;;;;25.51;31.54;94843.47;4941785;28;7477;-59
2022/03/28 10:23:16;;;;;;;;;;;;;;;25.54;32.08;94842.44;4936162;28;9560;-60
2022/03/28 10:25:44;;;;;;;;;;;;;;;25.54;31.88;94834.94;4945870;28;7216;-60
2022/03/28 10:28:13;;;;;;;;;;;;;;;25.50;31.55;94820.69;4948626;28;7831;-60
2022/03/28 10:30:44;;;;;;;;;;;;;;;25.56;31.60;94829.69;4928974;28;7435;-60
2022/03/28 10:33:11;;;;;;;;;;;;;;;25.56;31.36;94824.19;4949598;28;8962;-60
2022/03/28 10:35:55;;;;;;;;;;;;;;;25.58;31.30;94826.44;4951264;28;7252;-60
2022/03/28 10:38:26;;;;;;;;;;;;;;;25.58;31.70;94821.66;4950050;28;7440;-60
2022/03/28 10:41:01;;;;;;;;;;;;;;;25.57;31.61;94814.69;4922038;28;9195;-60
2022/03/28 10:43:31;;;;;;;;;;;;;;;25.58;31.88;94815.44;4929792;28;7645;-59
2022/03/28 10:46:02;;;;;;;;;;;;;;;25.59;31.98;94811.41;4934921;28;7234;-59
2022/03/28 10:48:41;;;;;;;;;;;;;;;25.58;31.41;94799.63;4942332;28;9099;-60
2022/03/28 10:51:20;;;;;;;;;;;;;;;25.59;32.03;94798.41;4939216;28;9041;-60
2022/03/28 10:54:00;;;;;;;;;;;;;;;25.59;31.81;94794.88;4936563;28;7073;-60
2022/03/28 10:56:37;;;;;;;;;;;;;;;25.62;31.64;94791.88;4952854;28;9334;-60
2022/03/28 10:59:32;;;;;;;;;;;;;;;25.61;31.81;94784.88;4921624;29;7453;-60
2022/03/28 11:02:27;;;;;;;;;;;;;;;25.63;32.25;94776.09;4870362;29;7226;-60
2022/03/28 11:05:18;;;;;;;;;;;;;;;25.63;32.20;94774.09;4873561;29;7279;-60
2022/03/28 11:08:40;;;;;;;;;;;;;;;25.65;31.31;94768.84;4859857;29;7235;-61
2022/03/28 11:11:55;;;;;;;;;;;;;;;25.66;31.73;94773.09;4872323;29;9292;-60
2022/03/28 11:14:44;;;;;;;;;;;;;;;25.67;32.25;94765.56;4839267;29;7488;-60
2022/03/28 11:17:36;;;;;;;;;;;;;;;25.68;31.79;94759.59;4826867;29;7359;-60
2022/03/28 11:20:22;;;;;;;;;;;;;;;25.70;31.72;94753.56;4842916;29;7391;-60
2022/03/28 11:23:06;;;;;;;;;;;;;;;25.69;31.96;94752.81;4829503;29;7205;-60
2022/03/28 11:25:38;;;;;;;;;;;;;;;25.70;31.76;94746.06;4826767;29;7289;-60
2022/03/28 11:28:04;;;;;;;;;;;;;;;25.71;31.79;94742.03;4834946;29;7977;-60
2022/03/28 11:30:39;;;;;;;;;;;;;;;25.73;31.84;94744.31;4835041;29;8773;-60
2022/03/28 11:33:10;;;;;;;;;;;;;;;25.74;32.28;94735.53;4820580;29;9240;-60
2022/03/28 11:35:37;;;;;;;;;;;;;;;25.76;32.19;94732.25;4834087;29;6865;-59
2022/03/28 11:38:05;;;;;;;;;;;;;;;25.77;32.07;94729.00;4846848;29;7504;-60
2022/03/28 11:40:39;;;;;;;;;;;;;;;25.75;31.62;94714.97;4893161;29;8770;-59
2022/03/28 11:43:09;;;;;;;;;;;;;;;25.79;31.41;94723.00;4892467;29;7370;-60
2022/03/28 11:45:44;;;;;;;;;;;;;;;25.78;31.89;94722.22;4908756;29;7241;-60
2022/03/28 11:48:10;;;;;;;;;;;;;;;25.80;32.02;94716.97;4911436;28;7890;-60
2022/03/28 11:50:36;;;;;;;;;;;;;;;25.81;31.54;94709.47;4933543;29;7070;-60
2022/03/28 11:53:03;;;;;;;;;;;;;;;25.81;32.09;94707.47;4933007;28;9519;-60
2022/03/28 11:55:29;;;;;;;;;;;;;;;25.82;31.86;94703.44;4946798;28;7425;-60
2022/03/28 11:58:16;;;;;;;;;;;;;;;25.83;32.25;94699.44;4946398;28;7276;-60
2022/03/28 12:00:48;;;;;;;;;;;;;;;25.84;31.89;94692.66;4943727;28;7576;-60
2022/03/28 12:03:19;;;;;;;;;;;;;;;25.85;31.62;94688.66;4942619;28;8228;-60
2022/03/28 12:05:47;;;;;;;;;;;;;;;25.87;31.80;94685.38;4950168;28;7250;-60
2022/03/28 12:08:18;;;;;;;;;;;;;;;25.88;31.91;94679.38;4963357;28;7127;-60
2022/03/28 12:10:52;;;;;;;;;;;;;;;25.87;31.48;94669.63;4959024;28;8377;-60
2022/03/28 12:13:22;;;;;;;;;;;;;;;25.90;31.96;94674.09;4933993;28;9526;-60
2022/03/28 12:15:53;;;;;;;;;;;;;;;25.92;31.67;94668.84;4951490;28;7386;-60
2022/03/28 12:18:30;;;;;;;;;;;;;;;25.94;31.82;94662.81;4951551;28;8845;-60
2022/03/28 12:21:11;;;;;;;;;;;;;;;25.94;31.58;94660.81;4955427;28;7180;-60
2022/03/28 12:23:49;;;;;;;;;;;;;;;25.97;31.80;94653.53;4956882;28;9173;-60
2022/03/28 12:26:25;;;;;;;;;;;;;;;25.98;31.49;94649.53;4939858;28;9513;-60
2022/03/28 12:29:03;;;;;;;;;;;;;;;25.98;31.73;94638.50;4952586;28;6962;-60
2022/03/28 12:31:32;;;;;;;;;;;;;;;25.98;31.49;94644.78;4946691;28;9150;-60
2022/03/28 12:34:06;;;;;;;;;;;;;;;25.99;31.41;94637.25;4940791;28;7212;-60
2022/03/28 12:36:38;;;;;;;;;;;;;;;26.00;32.11;94624.97;4955996;28;9086;-60
2022/03/28 12:39:08;;;;;;;;;;;;;;;26.01;31.53;94626.47;4927240;28;10444;-60
2022/03/28 12:41:53;;;;;;;;;;;;;;;26.01;31.10;94621.69;4942021;28;7236;-60
2022/03/28 12:44:26;;;;;;;;;;;;;;;26.05;31.29;94618.69;4955343;28;7362;-60
2022/03/28 12:47:06;;;;;;;;;;;;;;;26.05;31.62;94611.16;4947041;28;7493;-60
2022/03/28 12:49:43;;;;;;;;;;;;;;;26.06;31.82;94601.63;4956629;28;9190;-60
2022/03/28 12:52:24;;;;;;;;;;;;;;;26.06;31.36;94600.88;4933945;28;9529;-60
2022/03/28 12:54:58;;;;;;;;;;;;;;;26.07;31.67;94594.13;4937602;28;9067;-59
2022/03/28 13:01:25;;;;;;;;;;;;;;;26.09;31.47;94589.63;4868193;29;9068;-60
2022/03/28 13:04:44;;;;;;;;;;;;;;;26.12;32.12;94590.63;4854860;29;7025;-60
2022/03/28 13:07:38;;;;;;;;;;;;;;;26.12;31.99;94579.59;4856305;29;7518;-60
2022/03/28 13:10:42;;;;;;;;;;;;;;;26.17;31.34;94576.78;4848476;29;7176;-60
2022/03/28 13:13:34;;;;;;;;;;;;;;;26.21;32.12;94578.53;4805349;29;7362;-60
2022/03/28 13:16:20;;;;;;;;;;;;;;;26.21;31.62;94568.22;4805181;29;7228;-60
2022/03/28 13:19:04;;;;;;;;;;;;;;;26.23;32.12;94567.75;4805098;29;7365;-60
2022/03/28 13:21:43;;;;;;;;;;;;;;;26.23;31.86;94568.47;4821305;29;7227;-60
2022/03/28 13:24:19;;;;;;;;;;;;;;;26.24;31.39;94558.19;4813807;29;9150;-60
2022/03/28 13:30:16;;;;;;;;;;;;;;;26.28;31.36;94553.16;4771993;30;9060;-60
2022/03/28 13:32:55;;;;;;;;;;;;;;;26.29;31.26;94551.91;4827094;29;9039;-60
2022/03/28 13:35:57;;;;;;;;;;;;;;;26.31;30.49;94546.63;4842044;29;9125;-59
2022/03/28 13:38:25;;;;;;;;;;;;;;;26.31;31.01;94538.34;4804704;29;7266;-60
2022/03/28 13:41:05;;;;;;;;;;;;;;;26.32;30.92;94532.31;4806643;29;8000;-60